sensor_id;sensor_type;location;lat;lon;timestamp;P1;durP1;ratioP1;P2;durP2;ratioP2
40252;SDS011;25972;51.854;4.534;2024-01-30T00:01:55;8.30;;;5.50;;
40252;SDS011;25972;51.854;4.534;2024-01-30T00:04:21;9.90;;;6.00;;
40252;SDS011;25972;51.854;4.534;2024-01-30T00:06:47;10.00;;;5.15;;
40252;SDS011;25972;51.854;4.534;2024-01-30T00:09:12;8.93;;;5.70;;
40252;SDS011;25972;51.854;4.534;2024-01-30T00:11:39;7.60;;;5.72;;
40252;SDS011;25972;51.854;4.534;2024-01-30T00:14:04;11.52;;;6.85;;
40252;SDS011;25972;51.854;4.534;2024-01-30T00:16:30;9.30;;;6.20;;
40252;SDS011;25972;51.854;4.534;2024-01-30T00:18:56;8.05;;;6.43;;
40252;SDS011;25972;51.854;4.534;2024-01-30T00:21:22;10.10;;;5.85;;
40252;SDS011;25972;51.854;4.534;2024-01-30T00:23:48;9.27;;;5.72;;
40252;SDS011;25972;51.854;4.534;2024-01-30T00:26:14;9.07;;;6.05;;
40252;SDS011;25972;51.854;4.534;2024-01-30T00:28:43;11.00;;;7.38;;
40252;SDS011;25972;51.854;4.534;2024-01-30T00:31:09;9.88;;;6.78;;
40252;SDS011;25972;51.854;4.534;2024-01-30T00:33:41;10.07;;;6.20;;
40252;SDS011;25972;51.854;4.534;2024-01-30T00:36:07;9.50;;;6.65;;
40252;SDS011;25972;51.854;4.534;2024-01-30T00:38:33;4.85;;;4.07;;
40252;SDS011;25972;51.854;4.534;2024-01-30T00:40:59;10.05;;;5.70;;
40252;SDS011;25972;51.854;4.534;2024-01-30T00:43:25;6.55;;;4.72;;
40252;SDS011;25972;51.854;4.534;2024-01-30T00:45:51;10.95;;;6.55;;
40252;SDS011;25972;51.854;4.534;2024-01-30T00:48:19;7.97;;;5.78;;
40252;SDS011;25972;51.854;4.534;2024-01-30T00:50:45;8.82;;;5.68;;
40252;SDS011;25972;51.854;4.534;2024-01-30T00:53:11;9.80;;;7.00;;
40252;SDS011;25972;51.854;4.534;2024-01-30T00:55:37;11.85;;;6.68;;
40252;SDS011;25972;51.854;4.534;2024-01-30T00:58:02;10.65;;;5.93;;
40252;SDS011;25972;51.854;4.534;2024-01-30T01:00:28;7.88;;;5.68;;
40252;SDS011;25972;51.854;4.534;2024-01-30T01:02:54;7.30;;;5.63;;
40252;SDS011;25972;51.854;4.534;2024-01-30T01:05:20;8.52;;;6.25;;
40252;SDS011;25972;51.854;4.534;2024-01-30T01:07:46;8.73;;;5.28;;
40252;SDS011;25972;51.854;4.534;2024-01-30T01:10:16;9.85;;;6.15;;
40252;SDS011;25972;51.854;4.534;2024-01-30T01:12:42;10.20;;;6.82;;
40252;SDS011;25972;51.854;4.534;2024-01-30T01:15:08;5.35;;;4.82;;
40252;SDS011;25972;51.854;4.534;2024-01-30T01:17:37;13.05;;;6.97;;
40252;SDS011;25972;51.854;4.534;2024-01-30T01:20:04;9.68;;;6.82;;
40252;SDS011;25972;51.854;4.534;2024-01-30T01:22:31;8.90;;;5.60;;
40252;SDS011;25972;51.854;4.534;2024-01-30T01:24:57;8.13;;;6.15;;
40252;SDS011;25972;51.854;4.534;2024-01-30T01:27:23;7.40;;;5.10;;
40252;SDS011;25972;51.854;4.534;2024-01-30T01:29:50;6.57;;;5.22;;
40252;SDS011;25972;51.854;4.534;2024-01-30T01:32:16;7.20;;;4.43;;
40252;SDS011;25972;51.854;4.534;2024-01-30T01:34:41;8.57;;;5.90;;
40252;SDS011;25972;51.854;4.534;2024-01-30T01:37:07;7.68;;;5.05;;
40252;SDS011;25972;51.854;4.534;2024-01-30T01:39:33;8.52;;;5.38;;
40252;SDS011;25972;51.854;4.534;2024-01-30T01:41:59;9.10;;;5.88;;
40252;SDS011;25972;51.854;4.534;2024-01-30T01:44:25;4.32;;;2.85;;
40252;SDS011;25972;51.854;4.534;2024-01-30T01:46:51;6.03;;;5.43;;
40252;SDS011;25972;51.854;4.534;2024-01-30T01:49:17;8.25;;;5.72;;
40252;SDS011;25972;51.854;4.534;2024-01-30T01:51:44;4.22;;;3.47;;
40252;SDS011;25972;51.854;4.534;2024-01-30T01:54:12;3.70;;;3.35;;
40252;SDS011;25972;51.854;4.534;2024-01-30T01:56:39;10.38;;;7.03;;
40252;SDS011;25972;51.854;4.534;2024-01-30T01:59:06;7.97;;;6.35;;
40252;SDS011;25972;51.854;4.534;2024-01-30T02:01:33;7.07;;;5.70;;
40252;SDS011;25972;51.854;4.534;2024-01-30T02:03:59;7.30;;;5.60;;
40252;SDS011;25972;51.854;4.534;2024-01-30T02:06:26;6.82;;;4.93;;
40252;SDS011;25972;51.854;4.534;2024-01-30T02:08:52;8.40;;;6.28;;
40252;SDS011;25972;51.854;4.534;2024-01-30T02:11:19;8.02;;;5.55;;
40252;SDS011;25972;51.854;4.534;2024-01-30T02:13:45;5.50;;;2.92;;
40252;SDS011;25972;51.854;4.534;2024-01-30T02:16:11;7.50;;;6.43;;
40252;SDS011;25972;51.854;4.534;2024-01-30T02:18:37;8.50;;;5.57;;
40252;SDS011;25972;51.854;4.534;2024-01-30T02:21:07;8.13;;;6.13;;
40252;SDS011;25972;51.854;4.534;2024-01-30T02:23:33;8.95;;;6.53;;
40252;SDS011;25972;51.854;4.534;2024-01-30T02:25:59;7.60;;;6.32;;
40252;SDS011;25972;51.854;4.534;2024-01-30T02:28:25;5.63;;;4.53;;
40252;SDS011;25972;51.854;4.534;2024-01-30T02:30:51;8.82;;;5.40;;
40252;SDS011;25972;51.854;4.534;2024-01-30T02:33:16;5.93;;;2.67;;
40252;SDS011;25972;51.854;4.534;2024-01-30T02:35:42;11.02;;;3.83;;
40252;SDS011;25972;51.854;4.534;2024-01-30T02:38:08;3.63;;;2.55;;
40252;SDS011;25972;51.854;4.534;2024-01-30T02:40:34;4.65;;;3.00;;
40252;SDS011;25972;51.854;4.534;2024-01-30T02:43:00;9.02;;;5.93;;
40252;SDS011;25972;51.854;4.534;2024-01-30T02:45:26;5.35;;;3.25;;
40252;SDS011;25972;51.854;4.534;2024-01-30T02:47:52;6.93;;;5.30;;
40252;SDS011;25972;51.854;4.534;2024-01-30T02:50:17;7.97;;;6.43;;
40252;SDS011;25972;51.854;4.534;2024-01-30T02:52:43;8.52;;;6.35;;
40252;SDS011;25972;51.854;4.534;2024-01-30T02:55:09;6.25;;;4.88;;
40252;SDS011;25972;51.854;4.534;2024-01-30T02:57:35;5.55;;;4.13;;
40252;SDS011;25972;51.854;4.534;2024-01-30T03:00:02;8.55;;;5.13;;
40252;SDS011;25972;51.854;4.534;2024-01-30T03:02:30;8.40;;;5.90;;
40252;SDS011;25972;51.854;4.534;2024-01-30T03:04:56;6.55;;;3.95;;
40252;SDS011;25972;51.854;4.534;2024-01-30T03:07:22;8.98;;;5.60;;
40252;SDS011;25972;51.854;4.534;2024-01-30T03:09:48;4.10;;;3.72;;
40252;SDS011;25972;51.854;4.534;2024-01-30T03:12:13;4.18;;;2.83;;
40252;SDS011;25972;51.854;4.534;2024-01-30T03:14:39;7.85;;;5.63;;
40252;SDS011;25972;51.854;4.534;2024-01-30T03:17:05;7.50;;;5.38;;
40252;SDS011;25972;51.854;4.534;2024-01-30T03:19:30;7.80;;;6.43;;
40252;SDS011;25972;51.854;4.534;2024-01-30T03:21:56;7.32;;;5.45;;
40252;SDS011;25972;51.854;4.534;2024-01-30T03:24:22;7.50;;;5.68;;
40252;SDS011;25972;51.854;4.534;2024-01-30T03:26:47;8.65;;;5.97;;
40252;SDS011;25972;51.854;4.534;2024-01-30T03:29:17;6.38;;;5.68;;
40252;SDS011;25972;51.854;4.534;2024-01-30T03:31:43;3.53;;;3.20;;
40252;SDS011;25972;51.854;4.534;2024-01-30T03:34:09;6.50;;;5.35;;
40252;SDS011;25972;51.854;4.534;2024-01-30T03:36:34;7.00;;;5.05;;
40252;SDS011;25972;51.854;4.534;2024-01-30T03:39:00;6.68;;;5.72;;
40252;SDS011;25972;51.854;4.534;2024-01-30T03:41:26;3.42;;;2.80;;
40252;SDS011;25972;51.854;4.534;2024-01-30T03:43:53;6.90;;;4.97;;
40252;SDS011;25972;51.854;4.534;2024-01-30T03:46:19;8.18;;;6.43;;
40252;SDS011;25972;51.854;4.534;2024-01-30T03:48:45;10.07;;;6.85;;
40252;SDS011;25972;51.854;4.534;2024-01-30T03:51:11;8.18;;;5.80;;
40252;SDS011;25972;51.854;4.534;2024-01-30T03:53:39;6.95;;;5.28;;
40252;SDS011;25972;51.854;4.534;2024-01-30T03:56:06;6.22;;;4.20;;
40252;SDS011;25972;51.854;4.534;2024-01-30T03:58:32;8.02;;;6.07;;
40252;SDS011;25972;51.854;4.534;2024-01-30T04:00:58;6.40;;;4.57;;
40252;SDS011;25972;51.854;4.534;2024-01-30T04:03:23;7.53;;;5.22;;
40252;SDS011;25972;51.854;4.534;2024-01-30T04:05:51;5.63;;;4.38;;
40252;SDS011;25972;51.854;4.534;2024-01-30T04:08:17;9.85;;;6.72;;
40252;SDS011;25972;51.854;4.534;2024-01-30T04:10:42;6.82;;;4.22;;
40252;SDS011;25972;51.854;4.534;2024-01-30T04:13:08;8.15;;;5.60;;
40252;SDS011;25972;51.854;4.534;2024-01-30T04:15:34;6.53;;;5.53;;
40252;SDS011;25972;51.854;4.534;2024-01-30T04:18:00;4.47;;;2.83;;
40252;SDS011;25972;51.854;4.534;2024-01-30T04:20:26;3.95;;;3.35;;
40252;SDS011;25972;51.854;4.534;2024-01-30T04:22:51;4.57;;;4.15;;
40252;SDS011;25972;51.854;4.534;2024-01-30T04:25:17;9.10;;;7.20;;
40252;SDS011;25972;51.854;4.534;2024-01-30T04:27:43;8.88;;;6.68;;
40252;SDS011;25972;51.854;4.534;2024-01-30T04:30:09;8.20;;;5.85;;
40252;SDS011;25972;51.854;4.534;2024-01-30T04:32:35;7.57;;;4.80;;
40252;SDS011;25972;51.854;4.534;2024-01-30T04:35:01;6.22;;;5.35;;
40252;SDS011;25972;51.854;4.534;2024-01-30T04:37:29;7.97;;;5.75;;
40252;SDS011;25972;51.854;4.534;2024-01-30T04:39:56;7.00;;;5.90;;
40252;SDS011;25972;51.854;4.534;2024-01-30T04:42:21;5.82;;;4.95;;
40252;SDS011;25972;51.854;4.534;2024-01-30T04:44:47;9.25;;;5.03;;
40252;SDS011;25972;51.854;4.534;2024-01-30T04:47:13;6.53;;;5.78;;
40252;SDS011;25972;51.854;4.534;2024-01-30T04:49:39;7.47;;;5.40;;
40252;SDS011;25972;51.854;4.534;2024-01-30T04:52:05;6.60;;;5.10;;
40252;SDS011;25972;51.854;4.534;2024-01-30T04:54:31;6.65;;;4.93;;
40252;SDS011;25972;51.854;4.534;2024-01-30T04:56:57;6.68;;;4.30;;
40252;SDS011;25972;51.854;4.534;2024-01-30T04:59:23;7.70;;;5.70;;
40252;SDS011;25972;51.854;4.534;2024-01-30T05:01:49;9.38;;;6.60;;
40252;SDS011;25972;51.854;4.534;2024-01-30T05:04:15;6.28;;;4.47;;
40252;SDS011;25972;51.854;4.534;2024-01-30T05:06:40;6.90;;;4.90;;
40252;SDS011;25972;51.854;4.534;2024-01-30T05:09:06;7.15;;;5.78;;
40252;SDS011;25972;51.854;4.534;2024-01-30T05:11:36;2.28;;;1.92;;
40252;SDS011;25972;51.854;4.534;2024-01-30T05:14:03;9.63;;;6.00;;
40252;SDS011;25972;51.854;4.534;2024-01-30T05:16:29;8.15;;;5.40;;
40252;SDS011;25972;51.854;4.534;2024-01-30T05:18:56;7.82;;;5.28;;
40252;SDS011;25972;51.854;4.534;2024-01-30T05:21:21;8.63;;;5.43;;
40252;SDS011;25972;51.854;4.534;2024-01-30T05:23:47;8.07;;;6.40;;
40252;SDS011;25972;51.854;4.534;2024-01-30T05:26:12;6.18;;;4.47;;
40252;SDS011;25972;51.854;4.534;2024-01-30T05:28:38;9.43;;;6.30;;
40252;SDS011;25972;51.854;4.534;2024-01-30T05:31:04;7.15;;;5.88;;
40252;SDS011;25972;51.854;4.534;2024-01-30T05:33:29;7.72;;;5.72;;
40252;SDS011;25972;51.854;4.534;2024-01-30T05:35:57;6.53;;;5.68;;
40252;SDS011;25972;51.854;4.534;2024-01-30T05:38:23;9.18;;;6.00;;
40252;SDS011;25972;51.854;4.534;2024-01-30T05:40:49;7.15;;;4.95;;
40252;SDS011;25972;51.854;4.534;2024-01-30T05:43:14;8.27;;;6.40;;
40252;SDS011;25972;51.854;4.534;2024-01-30T05:45:40;7.55;;;6.20;;
40252;SDS011;25972;51.854;4.534;2024-01-30T05:48:06;4.32;;;3.92;;
40252;SDS011;25972;51.854;4.534;2024-01-30T05:50:32;9.10;;;5.53;;
40252;SDS011;25972;51.854;4.534;2024-01-30T05:52:58;9.00;;;5.43;;
40252;SDS011;25972;51.854;4.534;2024-01-30T05:55:23;7.55;;;6.53;;
40252;SDS011;25972;51.854;4.534;2024-01-30T05:57:49;10.23;;;6.25;;
40252;SDS011;25972;51.854;4.534;2024-01-30T06:00:16;5.03;;;4.13;;
40252;SDS011;25972;51.854;4.534;2024-01-30T06:02:42;8.75;;;6.57;;
40252;SDS011;25972;51.854;4.534;2024-01-30T06:05:09;9.95;;;6.47;;
40252;SDS011;25972;51.854;4.534;2024-01-30T06:07:35;7.00;;;5.50;;
40252;SDS011;25972;51.854;4.534;2024-01-30T06:10:01;7.00;;;4.93;;
40252;SDS011;25972;51.854;4.534;2024-01-30T06:12:27;6.75;;;5.22;;
40252;SDS011;25972;51.854;4.534;2024-01-30T06:14:53;8.63;;;5.93;;
40252;SDS011;25972;51.854;4.534;2024-01-30T06:17:22;6.57;;;5.10;;
40252;SDS011;25972;51.854;4.534;2024-01-30T06:19:48;5.95;;;5.28;;
40252;SDS011;25972;51.854;4.534;2024-01-30T06:22:14;8.45;;;5.57;;
40252;SDS011;25972;51.854;4.534;2024-01-30T06:24:40;3.85;;;3.35;;
40252;SDS011;25972;51.854;4.534;2024-01-30T06:27:05;9.32;;;6.85;;
40252;SDS011;25972;51.854;4.534;2024-01-30T06:29:31;3.28;;;3.08;;
40252;SDS011;25972;51.854;4.534;2024-01-30T06:31:56;5.22;;;4.72;;
40252;SDS011;25972;51.854;4.534;2024-01-30T06:34:22;6.53;;;4.60;;
40252;SDS011;25972;51.854;4.534;2024-01-30T06:36:48;7.75;;;5.18;;
40252;SDS011;25972;51.854;4.534;2024-01-30T06:39:14;7.32;;;5.10;;
40252;SDS011;25972;51.854;4.534;2024-01-30T06:41:39;6.75;;;4.95;;
40252;SDS011;25972;51.854;4.534;2024-01-30T06:44:06;8.55;;;5.57;;
40252;SDS011;25972;51.854;4.534;2024-01-30T06:46:33;5.82;;;4.47;;
40252;SDS011;25972;51.854;4.534;2024-01-30T06:48:59;9.15;;;5.80;;
40252;SDS011;25972;51.854;4.534;2024-01-30T06:51:25;10.32;;;6.95;;
40252;SDS011;25972;51.854;4.534;2024-01-30T06:53:50;3.10;;;2.70;;
40252;SDS011;25972;51.854;4.534;2024-01-30T06:56:16;11.75;;;7.28;;
40252;SDS011;25972;51.854;4.534;2024-01-30T06:58:46;6.55;;;5.32;;
40252;SDS011;25972;51.854;4.534;2024-01-30T07:01:12;4.22;;;3.75;;
40252;SDS011;25972;51.854;4.534;2024-01-30T07:03:39;5.93;;;5.07;;
40252;SDS011;25972;51.854;4.534;2024-01-30T07:06:05;8.90;;;5.85;;
40252;SDS011;25972;51.854;4.534;2024-01-30T07:08:31;6.53;;;5.05;;
40252;SDS011;25972;51.854;4.534;2024-01-30T07:10:58;4.22;;;3.35;;
40252;SDS011;25972;51.854;4.534;2024-01-30T07:13:24;6.95;;;5.18;;
40252;SDS011;25972;51.854;4.534;2024-01-30T07:15:50;7.38;;;5.90;;
40252;SDS011;25972;51.854;4.534;2024-01-30T07:18:16;5.35;;;4.15;;
40252;SDS011;25972;51.854;4.534;2024-01-30T07:20:41;6.80;;;4.53;;
40252;SDS011;25972;51.854;4.534;2024-01-30T07:23:14;9.60;;;7.47;;
40252;SDS011;25972;51.854;4.534;2024-01-30T07:25:45;9.57;;;6.65;;
40252;SDS011;25972;51.854;4.534;2024-01-30T07:28:15;7.47;;;5.60;;
40252;SDS011;25972;51.854;4.534;2024-01-30T07:30:43;6.10;;;5.25;;
40252;SDS011;25972;51.854;4.534;2024-01-30T07:33:10;5.65;;;4.55;;
40252;SDS011;25972;51.854;4.534;2024-01-30T07:35:36;3.28;;;3.00;;
40252;SDS011;25972;51.854;4.534;2024-01-30T07:38:01;9.68;;;4.10;;
40252;SDS011;25972;51.854;4.534;2024-01-30T07:40:27;7.25;;;5.93;;
40252;SDS011;25972;51.854;4.534;2024-01-30T07:42:53;7.28;;;6.00;;
40252;SDS011;25972;51.854;4.534;2024-01-30T07:45:20;9.02;;;5.03;;
40252;SDS011;25972;51.854;4.534;2024-01-30T07:47:48;4.18;;;3.05;;
40252;SDS011;25972;51.854;4.534;2024-01-30T07:50:14;5.60;;;4.55;;
40252;SDS011;25972;51.854;4.534;2024-01-30T07:52:40;8.65;;;4.68;;
40252;SDS011;25972;51.854;4.534;2024-01-30T07:55:06;6.30;;;4.57;;
40252;SDS011;25972;51.854;4.534;2024-01-30T07:57:33;2.53;;;1.83;;
40252;SDS011;25972;51.854;4.534;2024-01-30T07:59:59;7.72;;;6.03;;
40252;SDS011;25972;51.854;4.534;2024-01-30T08:02:25;5.28;;;3.92;;
40252;SDS011;25972;51.854;4.534;2024-01-30T08:04:51;8.27;;;6.85;;
40252;SDS011;25972;51.854;4.534;2024-01-30T08:07:17;9.45;;;7.35;;
40252;SDS011;25972;51.854;4.534;2024-01-30T08:09:43;8.40;;;4.25;;
40252;SDS011;25972;51.854;4.534;2024-01-30T08:12:09;5.97;;;3.67;;
40252;SDS011;25972;51.854;4.534;2024-01-30T08:14:35;9.38;;;5.72;;
40252;SDS011;25972;51.854;4.534;2024-01-30T08:17:00;4.25;;;2.78;;
40252;SDS011;25972;51.854;4.534;2024-01-30T08:19:26;6.70;;;4.45;;
40252;SDS011;25972;51.854;4.534;2024-01-30T08:21:52;11.00;;;7.28;;
40252;SDS011;25972;51.854;4.534;2024-01-30T08:24:21;4.07;;;3.28;;
40252;SDS011;25972;51.854;4.534;2024-01-30T08:26:46;8.23;;;6.00;;
40252;SDS011;25972;51.854;4.534;2024-01-30T08:29:12;7.60;;;6.25;;
40252;SDS011;25972;51.854;4.534;2024-01-30T08:31:37;8.52;;;5.93;;
40252;SDS011;25972;51.854;4.534;2024-01-30T08:34:03;8.70;;;5.43;;
40252;SDS011;25972;51.854;4.534;2024-01-30T08:36:29;7.93;;;4.20;;
40252;SDS011;25972;51.854;4.534;2024-01-30T08:38:54;6.20;;;5.63;;
40252;SDS011;25972;51.854;4.534;2024-01-30T08:41:20;7.15;;;4.55;;
40252;SDS011;25972;51.854;4.534;2024-01-30T08:48:44;3.65;;;3.33;;
40252;SDS011;25972;51.854;4.534;2024-01-30T08:51:10;6.18;;;4.78;;
40252;SDS011;25972;51.854;4.534;2024-01-30T08:53:36;5.60;;;5.03;;
40252;SDS011;25972;51.854;4.534;2024-01-30T08:56:02;4.75;;;3.55;;
40252;SDS011;25972;51.854;4.534;2024-01-30T08:58:29;9.38;;;8.27;;
40252;SDS011;25972;51.854;4.534;2024-01-30T09:00:55;8.63;;;7.32;;
40252;SDS011;25972;51.854;4.534;2024-01-30T09:03:21;7.00;;;6.30;;
40252;SDS011;25972;51.854;4.534;2024-01-30T09:05:47;12.00;;;8.48;;
40252;SDS011;25972;51.854;4.534;2024-01-30T09:10:41;4.25;;;3.78;;
40252;SDS011;25972;51.854;4.534;2024-01-30T09:13:07;5.95;;;3.67;;
40252;SDS011;25972;51.854;4.534;2024-01-30T09:15:32;6.90;;;4.40;;
40252;SDS011;25972;51.854;4.534;2024-01-30T09:17:58;9.82;;;8.77;;
40252;SDS011;25972;51.854;4.534;2024-01-30T09:20:24;8.77;;;7.93;;
40252;SDS011;25972;51.854;4.534;2024-01-30T09:22:50;6.75;;;5.18;;
40252;SDS011;25972;51.854;4.534;2024-01-30T09:25:15;7.13;;;4.22;;
40252;SDS011;25972;51.854;4.534;2024-01-30T09:27:41;4.75;;;3.38;;
40252;SDS011;25972;51.854;4.534;2024-01-30T09:30:07;7.05;;;4.85;;
40252;SDS011;25972;51.854;4.534;2024-01-30T09:32:33;8.25;;;4.68;;
40252;SDS011;25972;51.854;4.534;2024-01-30T09:34:59;5.68;;;3.88;;
40252;SDS011;25972;51.854;4.534;2024-01-30T09:37:24;6.45;;;4.95;;
40252;SDS011;25972;51.854;4.534;2024-01-30T09:39:50;10.60;;;6.55;;
40252;SDS011;25972;51.854;4.534;2024-01-30T09:44:48;4.65;;;4.07;;
40252;SDS011;25972;51.854;4.534;2024-01-30T09:47:17;6.40;;;5.80;;
40252;SDS011;25972;51.854;4.534;2024-01-30T09:49:43;5.07;;;4.05;;
40252;SDS011;25972;51.854;4.534;2024-01-30T09:52:09;6.93;;;4.43;;
40252;SDS011;25972;51.854;4.534;2024-01-30T09:54:37;6.43;;;3.78;;
40252;SDS011;25972;51.854;4.534;2024-01-30T09:57:04;9.70;;;8.00;;
40252;SDS011;25972;51.854;4.534;2024-01-30T09:59:30;7.47;;;5.65;;
40252;SDS011;25972;51.854;4.534;2024-01-30T10:01:57;3.67;;;3.22;;
40252;SDS011;25972;51.854;4.534;2024-01-30T10:04:23;3.22;;;2.25;;
40252;SDS011;25972;51.854;4.534;2024-01-30T10:06:49;7.07;;;6.07;;
40252;SDS011;25972;51.854;4.534;2024-01-30T10:09:16;7.47;;;4.70;;
40252;SDS011;25972;51.854;4.534;2024-01-30T10:11:42;7.03;;;4.47;;
40252;SDS011;25972;51.854;4.534;2024-01-30T10:14:09;7.45;;;5.95;;
40252;SDS011;25972;51.854;4.534;2024-01-30T10:16:34;9.20;;;6.78;;
40252;SDS011;25972;51.854;4.534;2024-01-30T10:19:02;9.40;;;5.68;;
40252;SDS011;25972;51.854;4.534;2024-01-30T10:21:29;4.25;;;2.65;;
40252;SDS011;25972;51.854;4.534;2024-01-30T10:23:55;3.25;;;2.03;;
40252;SDS011;25972;51.854;4.534;2024-01-30T10:26:21;5.70;;;3.92;;
40252;SDS011;25972;51.854;4.534;2024-01-30T10:28:47;3.47;;;2.50;;
40252;SDS011;25972;51.854;4.534;2024-01-30T10:31:17;3.83;;;1.60;;
40252;SDS011;25972;51.854;4.534;2024-01-30T10:33:44;5.07;;;2.10;;
40252;SDS011;25972;51.854;4.534;2024-01-30T10:36:11;3.33;;;1.20;;
40252;SDS011;25972;51.854;4.534;2024-01-30T10:38:40;2.85;;;1.17;;
40252;SDS011;25972;51.854;4.534;2024-01-30T10:41:07;1.17;;;0.50;;
40252;SDS011;25972;51.854;4.534;2024-01-30T10:43:40;3.15;;;1.45;;
40252;SDS011;25972;51.854;4.534;2024-01-30T10:46:10;3.00;;;1.00;;
40252;SDS011;25972;51.854;4.534;2024-01-30T10:48:43;2.40;;;1.23;;
40252;SDS011;25972;51.854;4.534;2024-01-30T10:51:14;6.07;;;1.27;;
40252;SDS011;25972;51.854;4.534;2024-01-30T10:53:41;2.53;;;0.80;;
40252;SDS011;25972;51.854;4.534;2024-01-30T10:56:09;2.15;;;0.85;;
40252;SDS011;25972;51.854;4.534;2024-01-30T10:58:37;0.57;;;0.43;;
40252;SDS011;25972;51.854;4.534;2024-01-30T11:01:03;1.92;;;0.60;;
40252;SDS011;25972;51.854;4.534;2024-01-30T11:03:30;4.45;;;1.15;;
40252;SDS011;25972;51.854;4.534;2024-01-30T11:05:59;4.00;;;1.63;;
40252;SDS011;25972;51.854;4.534;2024-01-30T11:08:26;1.63;;;0.80;;
40252;SDS011;25972;51.854;4.534;2024-01-30T11:10:57;1.27;;;0.40;;
40252;SDS011;25972;51.854;4.534;2024-01-30T11:13:30;1.23;;;0.65;;
40252;SDS011;25972;51.854;4.534;2024-01-30T11:16:03;3.80;;;1.95;;
40252;SDS011;25972;51.854;4.534;2024-01-30T11:18:30;4.20;;;2.10;;
40252;SDS011;25972;51.854;4.534;2024-01-30T11:20:57;4.15;;;1.35;;
40252;SDS011;25972;51.854;4.534;2024-01-30T11:23:25;1.10;;;1.02;;
40252;SDS011;25972;51.854;4.534;2024-01-30T11:25:52;0.75;;;0.75;;
40252;SDS011;25972;51.854;4.534;2024-01-30T11:28:18;4.55;;;1.40;;
40252;SDS011;25972;51.854;4.534;2024-01-30T11:30:45;3.25;;;1.40;;
40252;SDS011;25972;51.854;4.534;2024-01-30T11:33:13;1.98;;;1.05;;
40252;SDS011;25972;51.854;4.534;2024-01-30T11:35:42;1.95;;;0.90;;
40252;SDS011;25972;51.854;4.534;2024-01-30T11:38:18;6.57;;;1.60;;
40252;SDS011;25972;51.854;4.534;2024-01-30T11:40:44;1.58;;;0.50;;
40252;SDS011;25972;51.854;4.534;2024-01-30T11:43:10;0.60;;;0.60;;
40252;SDS011;25972;51.854;4.534;2024-01-30T11:45:37;0.15;;;0.05;;
40252;SDS011;25972;51.854;4.534;2024-01-30T11:48:04;2.88;;;0.90;;
40252;SDS011;25972;51.854;4.534;2024-01-30T11:50:32;3.10;;;1.10;;
40252;SDS011;25972;51.854;4.534;2024-01-30T11:53:01;1.85;;;0.45;;
40252;SDS011;25972;51.854;4.534;2024-01-30T11:55:28;1.33;;;0.40;;
40252;SDS011;25972;51.854;4.534;2024-01-30T11:57:55;2.33;;;1.15;;
40252;SDS011;25972;51.854;4.534;2024-01-30T12:00:24;5.10;;;0.70;;
40252;SDS011;25972;51.854;4.534;2024-01-30T12:02:50;2.92;;;1.00;;
40252;SDS011;25972;51.854;4.534;2024-01-30T12:05:21;1.85;;;0.77;;
40252;SDS011;25972;51.854;4.534;2024-01-30T12:07:47;6.72;;;1.17;;
40252;SDS011;25972;51.854;4.534;2024-01-30T12:10:13;4.70;;;0.90;;
40252;SDS011;25972;51.854;4.534;2024-01-30T12:12:39;2.08;;;1.02;;
40252;SDS011;25972;51.854;4.534;2024-01-30T12:15:15;3.80;;;0.93;;
40252;SDS011;25972;51.854;4.534;2024-01-30T12:17:41;2.05;;;1.00;;
40252;SDS011;25972;51.854;4.534;2024-01-30T12:20:08;1.38;;;0.65;;
40252;SDS011;25972;51.854;4.534;2024-01-30T12:22:39;3.03;;;0.65;;
40252;SDS011;25972;51.854;4.534;2024-01-30T12:25:11;4.15;;;0.93;;
40252;SDS011;25972;51.854;4.534;2024-01-30T12:27:39;0.77;;;0.68;;
40252;SDS011;25972;51.854;4.534;2024-01-30T12:30:08;3.63;;;0.88;;
40252;SDS011;25972;51.854;4.534;2024-01-30T12:32:36;4.25;;;0.95;;
40252;SDS011;25972;51.854;4.534;2024-01-30T12:35:06;1.15;;;0.38;;
40252;SDS011;25972;51.854;4.534;2024-01-30T12:37:36;2.28;;;0.40;;
40252;SDS011;25972;51.854;4.534;2024-01-30T12:40:02;1.55;;;1.00;;
40252;SDS011;25972;51.854;4.534;2024-01-30T12:42:29;2.78;;;1.13;;
40252;SDS011;25972;51.854;4.534;2024-01-30T12:44:57;0.43;;;0.28;;
40252;SDS011;25972;51.854;4.534;2024-01-30T12:47:24;2.65;;;1.40;;
40252;SDS011;25972;51.854;4.534;2024-01-30T12:49:50;4.32;;;1.02;;
40252;SDS011;25972;51.854;4.534;2024-01-30T12:52:19;1.58;;;0.82;;
40252;SDS011;25972;51.854;4.534;2024-01-30T12:54:46;2.45;;;1.23;;
40252;SDS011;25972;51.854;4.534;2024-01-30T12:57:12;2.72;;;0.80;;
40252;SDS011;25972;51.854;4.534;2024-01-30T12:59:38;3.17;;;0.90;;
40252;SDS011;25972;51.854;4.534;2024-01-30T13:02:04;1.33;;;0.50;;
40252;SDS011;25972;51.854;4.534;2024-01-30T13:04:30;1.80;;;0.63;;
40252;SDS011;25972;51.854;4.534;2024-01-30T13:07:03;1.98;;;1.77;;
40252;SDS011;25972;51.854;4.534;2024-01-30T13:09:29;0.40;;;0.20;;
40252;SDS011;25972;51.854;4.534;2024-01-30T13:11:58;1.77;;;0.80;;
40252;SDS011;25972;51.854;4.534;2024-01-30T13:14:28;4.22;;;1.08;;
40252;SDS011;25972;51.854;4.534;2024-01-30T13:16:54;1.70;;;0.50;;
40252;SDS011;25972;51.854;4.534;2024-01-30T13:19:19;0.68;;;0.68;;
40252;SDS011;25972;51.854;4.534;2024-01-30T13:21:47;3.65;;;1.27;;
40252;SDS011;25972;51.854;4.534;2024-01-30T13:24:13;2.83;;;1.17;;
40252;SDS011;25972;51.854;4.534;2024-01-30T13:26:39;1.25;;;0.98;;
40252;SDS011;25972;51.854;4.534;2024-01-30T13:29:06;2.50;;;1.40;;
40252;SDS011;25972;51.854;4.534;2024-01-30T13:31:31;5.55;;;1.48;;
40252;SDS011;25972;51.854;4.534;2024-01-30T13:33:57;3.78;;;1.30;;
40252;SDS011;25972;51.854;4.534;2024-01-30T13:36:23;2.38;;;1.65;;
40252;SDS011;25972;51.854;4.534;2024-01-30T13:38:52;3.40;;;1.10;;
40252;SDS011;25972;51.854;4.534;2024-01-30T13:41:18;0.85;;;0.43;;
40252;SDS011;25972;51.854;4.534;2024-01-30T13:43:45;3.17;;;1.52;;
40252;SDS011;25972;51.854;4.534;2024-01-30T13:46:12;6.13;;;2.10;;
40252;SDS011;25972;51.854;4.534;2024-01-30T13:48:38;5.53;;;1.52;;
40252;SDS011;25972;51.854;4.534;2024-01-30T13:51:05;1.55;;;1.00;;
40252;SDS011;25972;51.854;4.534;2024-01-30T13:53:31;0.70;;;0.65;;
40252;SDS011;25972;51.854;4.534;2024-01-30T13:55:57;0.65;;;0.65;;
40252;SDS011;25972;51.854;4.534;2024-01-30T13:58:23;5.35;;;1.60;;
40252;SDS011;25972;51.854;4.534;2024-01-30T14:00:49;3.63;;;1.70;;
40252;SDS011;25972;51.854;4.534;2024-01-30T14:03:15;5.85;;;1.85;;
40252;SDS011;25972;51.854;4.534;2024-01-30T14:05:41;4.20;;;1.65;;
40252;SDS011;25972;51.854;4.534;2024-01-30T14:08:06;4.72;;;2.20;;
40252;SDS011;25972;51.854;4.534;2024-01-30T14:10:33;5.20;;;1.73;;
40252;SDS011;25972;51.854;4.534;2024-01-30T14:12:59;1.60;;;1.08;;
40252;SDS011;25972;51.854;4.534;2024-01-30T14:15:26;7.60;;;1.48;;
40252;SDS011;25972;51.854;4.534;2024-01-30T14:20:21;1.40;;;1.17;;
40252;SDS011;25972;51.854;4.534;2024-01-30T14:22:47;1.73;;;0.95;;
40252;SDS011;25972;51.854;4.534;2024-01-30T14:25:13;4.80;;;1.17;;
40252;SDS011;25972;51.854;4.534;2024-01-30T14:27:39;8.02;;;2.58;;
40252;SDS011;25972;51.854;4.534;2024-01-30T14:30:04;4.28;;;2.05;;
40252;SDS011;25972;51.854;4.534;2024-01-30T14:32:31;1.35;;;0.55;;
40252;SDS011;25972;51.854;4.534;2024-01-30T14:34:56;2.13;;;1.23;;
40252;SDS011;25972;51.854;4.534;2024-01-30T14:37:22;5.25;;;2.03;;
40252;SDS011;25972;51.854;4.534;2024-01-30T14:39:48;1.38;;;0.98;;
40252;SDS011;25972;51.854;4.534;2024-01-30T14:42:14;4.78;;;1.58;;
40252;SDS011;25972;51.854;4.534;2024-01-30T14:44:41;3.40;;;1.30;;
40252;SDS011;25972;51.854;4.534;2024-01-30T14:47:07;3.95;;;1.45;;
40252;SDS011;25972;51.854;4.534;2024-01-30T14:49:33;1.83;;;1.40;;
40252;SDS011;25972;51.854;4.534;2024-01-30T14:51:59;2.72;;;0.98;;
40252;SDS011;25972;51.854;4.534;2024-01-30T14:54:25;3.30;;;1.02;;
40252;SDS011;25972;51.854;4.534;2024-01-30T14:56:52;1.70;;;1.60;;